sensor_id;sensor_type;location;lat;lon;timestamp;pressure;altitude;pressure_sealevel;temperature;humidity
72438;BME280;60444;43.534;-5.674;2022-09-20T00:00:41;102001.00;;;19.51;85.34
72438;BME280;60444;43.534;-5.674;2022-09-20T00:03:08;102017.91;;;19.57;85.35
72438;BME280;60444;43.534;-5.674;2022-09-20T00:05:35;101997.47;;;19.49;85.46
72438;BME280;60444;43.534;-5.674;2022-09-20T00:08:02;102016.97;;;19.58;85.91
72438;BME280;60444;43.534;-5.674;2022-09-20T00:10:29;102003.19;;;19.46;83.73
72438;BME280;60444;43.534;-5.674;2022-09-20T00:12:56;102021.78;;;19.55;85.37
72438;BME280;60444;43.534;-5.674;2022-09-20T00:15:21;101991.53;;;19.42;85.69
72438;BME280;60444;43.534;-5.674;2022-09-20T00:17:47;101986.44;;;19.36;84.35
72438;BME280;60444;43.534;-5.674;2022-09-20T00:20:13;102012.94;;;19.50;84.75
72438;BME280;60444;43.534;-5.674;2022-09-20T00:22:38;101999.59;;;19.31;83.80
72438;BME280;60444;43.534;-5.674;2022-09-20T00:25:04;102006.44;;;19.38;85.01
72438;BME280;60444;43.534;-5.674;2022-09-20T00:27:30;102004.53;;;19.39;85.61
72438;BME280;60444;43.534;-5.674;2022-09-20T00:29:56;102008.50;;;19.35;83.90
72438;BME280;60444;43.534;-5.674;2022-09-20T00:32:22;102004.66;;;19.37;85.17
72438;BME280;60444;43.534;-5.674;2022-09-20T00:34:47;102001.78;;;19.39;85.32
72438;BME280;60444;43.534;-5.674;2022-09-20T00:37:33;102014.34;;;19.43;85.46
72438;BME280;60444;43.534;-5.674;2022-09-20T00:39:59;102015.44;;;19.40;83.47
72438;BME280;60444;43.534;-5.674;2022-09-20T00:42:29;102018.75;;;19.45;85.27
72438;BME280;60444;43.534;-5.674;2022-09-20T00:47:42;102016.00;;;19.45;86.27
72438;BME280;60444;43.534;-5.674;2022-09-20T00:50:32;101982.91;;;19.34;86.28
72438;BME280;60444;43.534;-5.674;2022-09-20T00:53:38;102004.13;;;19.45;85.46
72438;BME280;60444;43.534;-5.674;2022-09-20T00:56:12;101989.06;;;19.38;85.82
72438;BME280;60444;43.534;-5.674;2022-09-20T00:58:49;101996.53;;;19.36;85.80
72438;BME280;60444;43.534;-5.674;2022-09-20T01:01:16;101996.03;;;19.29;83.86
72438;BME280;60444;43.534;-5.674;2022-09-20T01:03:42;101994.69;;;19.22;84.23
72438;BME280;60444;43.534;-5.674;2022-09-20T01:06:10;101998.69;;;19.31;86.13
72438;BME280;60444;43.534;-5.674;2022-09-20T01:08:38;102014.22;;;19.30;84.49
72438;BME280;60444;43.534;-5.674;2022-09-20T01:11:06;101984.19;;;19.15;84.73
72438;BME280;60444;43.534;-5.674;2022-09-20T01:13:31;102006.63;;;19.21;82.87
72438;BME280;60444;43.534;-5.674;2022-09-20T01:15:58;102012.78;;;19.25;84.44
72438;BME280;60444;43.534;-5.674;2022-09-20T01:18:25;102018.84;;;19.30;85.66
72438;BME280;60444;43.534;-5.674;2022-09-20T01:20:52;101999.06;;;19.25;86.00
72438;BME280;60444;43.534;-5.674;2022-09-20T01:28:43;102001.44;;;19.17;84.19
72438;BME280;60444;43.534;-5.674;2022-09-20T01:33:53;101995.47;;;19.24;86.11
72438;BME280;60444;43.534;-5.674;2022-09-20T01:39:14;101990.47;;;19.17;84.70
72438;BME280;60444;43.534;-5.674;2022-09-20T01:41:57;101997.03;;;19.14;85.33
72438;BME280;60444;43.534;-5.674;2022-09-20T01:52:57;101994.00;;;19.19;87.30
72438;BME280;60444;43.534;-5.674;2022-09-20T01:55:49;101981.84;;;19.09;87.25
72438;BME280;60444;43.534;-5.674;2022-09-20T02:14:38;101988.00;;;19.12;86.30
72438;BME280;60444;43.534;-5.674;2022-09-20T02:17:31;101989.97;;;19.10;86.24
72438;BME280;60444;43.534;-5.674;2022-09-20T02:34:01;101985.31;;;18.98;86.41
72438;BME280;60444;43.534;-5.674;2022-09-20T02:39:38;101967.50;;;18.91;86.44
72438;BME280;60444;43.534;-5.674;2022-09-20T02:42:20;101973.19;;;18.88;86.20
72438;BME280;60444;43.534;-5.674;2022-09-20T02:45:09;101983.84;;;18.93;85.72
72438;BME280;60444;43.534;-5.674;2022-09-20T02:47:42;101985.69;;;18.92;86.06
72438;BME280;60444;43.534;-5.674;2022-09-20T02:53:22;101986.09;;;18.86;85.47
72438;BME280;60444;43.534;-5.674;2022-09-20T02:56:19;101992.66;;;18.84;85.70
72438;BME280;60444;43.534;-5.674;2022-09-20T02:59:03;101988.34;;;18.80;85.75
72438;BME280;60444;43.534;-5.674;2022-09-20T03:04:27;101981.38;;;18.74;85.68
72438;BME280;60444;43.534;-5.674;2022-09-20T03:12:25;101996.97;;;18.74;86.50
72438;BME280;60444;43.534;-5.674;2022-09-20T03:17:56;101982.66;;;18.69;86.07
72438;BME280;60444;43.534;-5.674;2022-09-20T03:32:25;101983.19;;;18.61;85.90
72438;BME280;60444;43.534;-5.674;2022-09-20T03:42:53;101974.66;;;18.51;86.66
72438;BME280;60444;43.534;-5.674;2022-09-20T03:45:52;101978.28;;;18.52;86.93
72438;BME280;60444;43.534;-5.674;2022-09-20T03:51:16;101976.91;;;18.45;85.84
72438;BME280;60444;43.534;-5.674;2022-09-20T03:57:02;101980.72;;;18.42;86.10
72438;BME280;60444;43.534;-5.674;2022-09-20T03:59:39;101985.38;;;18.40;86.02
72438;BME280;60444;43.534;-5.674;2022-09-20T04:02:34;101980.88;;;18.39;85.68
72438;BME280;60444;43.534;-5.674;2022-09-20T04:05:06;101983.78;;;18.36;85.92
72438;BME280;60444;43.534;-5.674;2022-09-20T04:07:47;101985.66;;;18.36;85.62
72438;BME280;60444;43.534;-5.674;2022-09-20T04:13:43;101976.47;;;18.37;85.76
72438;BME280;60444;43.534;-5.674;2022-09-20T04:16:39;101966.34;;;18.23;85.95
72438;BME280;60444;43.534;-5.674;2022-09-20T04:21:55;101985.94;;;18.31;85.37
72438;BME280;60444;43.534;-5.674;2022-09-20T04:29:33;101982.41;;;18.29;85.14
72438;BME280;60444;43.534;-5.674;2022-09-20T04:32:08;101989.75;;;18.29;85.41
72438;BME280;60444;43.534;-5.674;2022-09-20T04:34:45;101974.66;;;18.22;85.84
72438;BME280;60444;43.534;-5.674;2022-09-20T04:37:33;101976.72;;;18.18;85.62
72438;BME280;60444;43.534;-5.674;2022-09-20T04:49:11;102000.22;;;18.22;85.02
72438;BME280;60444;43.534;-5.674;2022-09-20T04:52:34;101975.34;;;18.11;86.13
72438;BME280;60444;43.534;-5.674;2022-09-20T05:09:44;102000.97;;;18.10;85.38
72438;BME280;60444;43.534;-5.674;2022-09-20T05:15:34;102004.66;;;18.09;85.17
72438;BME280;60444;43.534;-5.674;2022-09-20T05:24:16;101995.66;;;18.07;86.38
72438;BME280;60444;43.534;-5.674;2022-09-20T05:29:37;101999.63;;;17.88;81.67
72438;BME280;60444;43.534;-5.674;2022-09-20T05:37:42;101997.41;;;17.94;85.56
72438;BME280;60444;43.534;-5.674;2022-09-20T05:45:45;102027.94;;;18.02;85.32
72438;BME280;60444;43.534;-5.674;2022-09-20T05:48:38;102017.19;;;17.99;85.92
72438;BME280;60444;43.534;-5.674;2022-09-20T05:59:12;102024.41;;;18.00;84.83
72438;BME280;60444;43.534;-5.674;2022-09-20T06:05:00;102036.53;;;17.96;85.75
72438;BME280;60444;43.534;-5.674;2022-09-20T06:15:44;102037.41;;;17.97;84.43
72438;BME280;60444;43.534;-5.674;2022-09-20T06:18:38;102039.88;;;18.01;85.12
72438;BME280;60444;43.534;-5.674;2022-09-20T06:23:44;102040.47;;;18.06;85.38
72438;BME280;60444;43.534;-5.674;2022-09-20T06:26:23;102050.44;;;18.07;84.19
72438;BME280;60444;43.534;-5.674;2022-09-20T06:28:57;102041.63;;;18.02;85.19
72438;BME280;60444;43.534;-5.674;2022-09-20T06:31:25;102044.97;;;18.07;85.75
72438;BME280;60444;43.534;-5.674;2022-09-20T06:34:17;102059.53;;;18.08;84.40
72438;BME280;60444;43.534;-5.674;2022-09-20T06:36:49;102049.84;;;18.02;85.10
72438;BME280;60444;43.534;-5.674;2022-09-20T06:40:05;102050.63;;;18.04;85.36
72438;BME280;60444;43.534;-5.674;2022-09-20T06:42:57;102050.81;;;18.01;85.25
72438;BME280;60444;43.534;-5.674;2022-09-20T06:45:24;102056.19;;;18.03;84.92
72438;BME280;60444;43.534;-5.674;2022-09-20T06:47:49;102059.84;;;18.03;85.56
72438;BME280;60444;43.534;-5.674;2022-09-20T06:50:15;102052.56;;;18.02;84.93
72438;BME280;60444;43.534;-5.674;2022-09-20T06:52:41;102055.91;;;18.07;85.32
72438;BME280;60444;43.534;-5.674;2022-09-20T06:55:33;102055.22;;;18.04;84.48
72438;BME280;60444;43.534;-5.674;2022-09-20T06:58:02;102078.34;;;18.14;85.31
72438;BME280;60444;43.534;-5.674;2022-09-20T07:00:27;102064.91;;;18.09;85.33
72438;BME280;60444;43.534;-5.674;2022-09-20T07:02:54;102071.00;;;18.14;85.21
72438;BME280;60444;43.534;-5.674;2022-09-20T07:05:21;102076.31;;;18.17;85.14
72438;BME280;60444;43.534;-5.674;2022-09-20T07:07:47;102078.84;;;18.20;85.35
72438;BME280;60444;43.534;-5.674;2022-09-20T07:10:13;102073.38;;;18.20;84.68
72438;BME280;60444;43.534;-5.674;2022-09-20T07:12:40;102070.03;;;18.15;84.38
72438;BME280;60444;43.534;-5.674;2022-09-20T07:15:06;102081.41;;;18.23;84.27
72438;BME280;60444;43.534;-5.674;2022-09-20T07:17:32;102070.63;;;18.20;84.89
72438;BME280;60444;43.534;-5.674;2022-09-20T07:19:58;102055.56;;;18.13;84.50
72438;BME280;60444;43.534;-5.674;2022-09-20T07:22:24;102089.44;;;18.26;84.41
72438;BME280;60444;43.534;-5.674;2022-09-20T07:24:50;102074.75;;;18.27;84.37
72438;BME280;60444;43.534;-5.674;2022-09-20T07:27:16;102068.44;;;18.27;84.19
72438;BME280;60444;43.534;-5.674;2022-09-20T07:29:41;102073.59;;;18.31;84.19
72438;BME280;60444;43.534;-5.674;2022-09-20T07:32:07;102069.88;;;18.32;84.21
72438;BME280;60444;43.534;-5.674;2022-09-20T07:34:32;102057.06;;;18.33;84.48
72438;BME280;60444;43.534;-5.674;2022-09-20T07:36:58;102059.72;;;18.34;84.46
72438;BME280;60444;43.534;-5.674;2022-09-20T07:39:27;102041.19;;;18.24;84.01
72438;BME280;60444;43.534;-5.674;2022-09-20T07:41:52;102072.81;;;18.45;84.21
72438;BME280;60444;43.534;-5.674;2022-09-20T07:44:18;102066.59;;;18.41;83.78
72438;BME280;60444;43.534;-5.674;2022-09-20T07:46:57;102080.94;;;18.46;84.09
72438;BME280;60444;43.534;-5.674;2022-09-20T07:49:24;102065.56;;;18.44;83.73
72438;BME280;60444;43.534;-5.674;2022-09-20T07:51:51;102076.84;;;18.53;82.99
72438;BME280;60444;43.534;-5.674;2022-09-20T07:54:17;102083.09;;;18.55;83.06
72438;BME280;60444;43.534;-5.674;2022-09-20T07:56:44;102085.66;;;18.58;83.43
72438;BME280;60444;43.534;-5.674;2022-09-20T07:59:10;102075.25;;;18.49;83.30
72438;BME280;60444;43.534;-5.674;2022-09-20T08:01:36;102077.91;;;18.51;82.64
72438;BME280;60444;43.534;-5.674;2022-09-20T08:04:06;102080.72;;;18.49;83.74
72438;BME280;60444;43.534;-5.674;2022-09-20T08:06:36;102095.72;;;18.58;83.68
72438;BME280;60444;43.534;-5.674;2022-09-20T08:09:05;102097.31;;;18.62;83.23
72438;BME280;60444;43.534;-5.674;2022-09-20T08:11:31;102108.06;;;18.65;83.87
72438;BME280;60444;43.534;-5.674;2022-09-20T08:13:58;102107.22;;;18.65;83.59
72438;BME280;60444;43.534;-5.674;2022-09-20T08:16:26;102098.09;;;18.64;83.39
72438;BME280;60444;43.534;-5.674;2022-09-20T08:18:59;102114.88;;;18.74;82.43
72438;BME280;60444;43.534;-5.674;2022-09-20T08:21:30;102099.56;;;18.70;83.38
72438;BME280;60444;43.534;-5.674;2022-09-20T08:23:57;102102.00;;;18.74;83.25
72438;BME280;60444;43.534;-5.674;2022-09-20T08:26:24;102107.03;;;18.82;83.44
72438;BME280;60444;43.534;-5.674;2022-09-20T08:28:51;102109.59;;;18.85;83.03
72438;BME280;60444;43.534;-5.674;2022-09-20T08:31:19;102100.47;;;18.84;82.86
72438;BME280;60444;43.534;-5.674;2022-09-20T08:33:46;102081.97;;;18.74;82.78
72438;BME280;60444;43.534;-5.674;2022-09-20T08:36:17;102098.22;;;18.91;83.36
72438;BME280;60444;43.534;-5.674;2022-09-20T08:38:46;102116.34;;;18.93;82.78
72438;BME280;60444;43.534;-5.674;2022-09-20T08:41:29;102105.50;;;18.92;83.02
72438;BME280;60444;43.534;-5.674;2022-09-20T08:44:05;102099.22;;;18.90;80.81
72438;BME280;60444;43.534;-5.674;2022-09-20T08:46:38;102102.75;;;18.92;82.12
72438;BME280;60444;43.534;-5.674;2022-09-20T08:49:06;102074.22;;;18.80;82.81
72438;BME280;60444;43.534;-5.674;2022-09-20T08:51:39;102110.75;;;18.95;81.21
72438;BME280;60444;43.534;-5.674;2022-09-20T08:54:06;102123.69;;;19.07;82.28
72438;BME280;60444;43.534;-5.674;2022-09-20T08:56:36;102121.06;;;19.05;80.20
72438;BME280;60444;43.534;-5.674;2022-09-20T08:59:03;102105.19;;;18.96;79.97
72438;BME280;60444;43.534;-5.674;2022-09-20T09:01:30;102116.56;;;19.04;80.28
72438;BME280;60444;43.534;-5.674;2022-09-20T09:04:21;102113.63;;;19.07;80.61
72438;BME280;60444;43.534;-5.674;2022-09-20T09:06:49;102111.19;;;19.03;79.92
72438;BME280;60444;43.534;-5.674;2022-09-20T09:09:21;102130.38;;;19.17;81.44
72438;BME280;60444;43.534;-5.674;2022-09-20T09:11:49;102122.31;;;19.14;80.35
72438;BME280;60444;43.534;-5.674;2022-09-20T09:14:43;102130.66;;;19.12;80.78
72438;BME280;60444;43.534;-5.674;2022-09-20T09:17:18;102115.88;;;19.15;81.21
72438;BME280;60444;43.534;-5.674;2022-09-20T09:19:55;102135.66;;;19.20;80.75
72438;BME280;60444;43.534;-5.674;2022-09-20T09:22:39;102139.28;;;19.20;81.18
72438;BME280;60444;43.534;-5.674;2022-09-20T09:27:57;102134.19;;;19.28;81.08
72438;BME280;60444;43.534;-5.674;2022-09-20T09:30:27;102139.56;;;19.30;81.42
72438;BME280;60444;43.534;-5.674;2022-09-20T09:36:06;102145.09;;;19.44;81.63
72438;BME280;60444;43.534;-5.674;2022-09-20T09:38:36;102138.03;;;19.40;81.75
72438;BME280;60444;43.534;-5.674;2022-09-20T09:41:18;102134.72;;;19.49;82.04
72438;BME280;60444;43.534;-5.674;2022-09-20T09:44:17;102144.50;;;19.53;81.92
72438;BME280;60444;43.534;-5.674;2022-09-20T09:46:43;102126.16;;;19.53;82.31
72438;BME280;60444;43.534;-5.674;2022-09-20T09:49:19;102148.41;;;19.63;81.51
72438;BME280;60444;43.534;-5.674;2022-09-20T09:52:14;102147.59;;;19.75;81.95
72438;BME280;60444;43.534;-5.674;2022-09-20T09:54:48;102130.16;;;19.76;81.23
72438;BME280;60444;43.534;-5.674;2022-09-20T10:03:03;102132.56;;;19.95;80.55
72438;BME280;60444;43.534;-5.674;2022-09-20T10:22:32;102139.94;;;20.21;78.34
72438;BME280;60444;43.534;-5.674;2022-09-20T10:25:35;102146.34;;;20.21;78.18
72438;BME280;60444;43.534;-5.674;2022-09-20T10:39:01;102131.19;;;20.28;79.24
72438;BME280;60444;43.534;-5.674;2022-09-20T10:41:43;102132.16;;;20.27;79.30
72438;BME280;60444;43.534;-5.674;2022-09-20T10:44:41;102139.66;;;20.25;79.39
72438;BME280;60444;43.534;-5.674;2022-09-20T10:47:18;102108.94;;;20.19;79.20
72438;BME280;60444;43.534;-5.674;2022-09-20T10:49:56;102128.66;;;20.25;79.08
72438;BME280;60444;43.534;-5.674;2022-09-20T10:55:44;102094.78;;;20.25;79.74
72438;BME280;60444;43.534;-5.674;2022-09-20T10:58:30;102119.53;;;20.25;79.11
72438;BME280;60444;43.534;-5.674;2022-09-20T11:09:22;102116.81;;;20.37;78.34
72438;BME280;60444;43.534;-5.674;2022-09-20T11:14:47;102115.50;;;20.43;78.03
72438;BME280;60444;43.534;-5.674;2022-09-20T11:17:40;102115.75;;;20.40;78.67
72438;BME280;60444;43.534;-5.674;2022-09-20T11:20:24;102093.63;;;20.41;77.98
72438;BME280;60444;43.534;-5.674;2022-09-20T11:22:58;102106.78;;;20.36;78.41
72438;BME280;60444;43.534;-5.674;2022-09-20T11:25:41;102118.16;;;20.44;77.35
72438;BME280;60444;43.534;-5.674;2022-09-20T11:34:24;102106.63;;;20.52;77.27
72438;BME280;60444;43.534;-5.674;2022-09-20T11:36:56;102108.06;;;20.57;77.09
72438;BME280;60444;43.534;-5.674;2022-09-20T11:41:58;102106.06;;;20.47;76.93
72438;BME280;60444;43.534;-5.674;2022-09-20T11:44:26;102105.06;;;20.48;77.31
72438;BME280;60444;43.534;-5.674;2022-09-20T11:53:38;102098.50;;;20.50;77.77
72438;BME280;60444;43.534;-5.674;2022-09-20T11:58:05;102093.00;;;20.50;76.97
72438;BME280;60444;43.534;-5.674;2022-09-20T12:00:35;102106.50;;;20.53;76.19
72438;BME280;60444;43.534;-5.674;2022-09-20T12:03:05;102107.50;;;20.52;76.68
72438;BME280;60444;43.534;-5.674;2022-09-20T12:05:40;102097.50;;;20.51;76.86
72438;BME280;60444;43.534;-5.674;2022-09-20T12:08:17;102113.19;;;20.49;77.04
72438;BME280;60444;43.534;-5.674;2022-09-20T12:11:00;102077.34;;;20.38;77.96
72438;BME280;60444;43.534;-5.674;2022-09-20T12:13:30;102093.00;;;20.50;77.06
72438;BME280;60444;43.534;-5.674;2022-09-20T12:16:49;102102.34;;;20.60;77.17
72438;BME280;60444;43.534;-5.674;2022-09-20T12:21:24;102094.44;;;20.69;76.83
72438;BME280;60444;43.534;-5.674;2022-09-20T12:36:20;102087.50;;;20.50;76.07
72438;BME280;60444;43.534;-5.674;2022-09-20T12:38:48;102100.25;;;20.51;77.11
72438;BME280;60444;43.534;-5.674;2022-09-20T12:41:18;102088.56;;;20.48;77.70
72438;BME280;60444;43.534;-5.674;2022-09-20T12:44:05;102107.97;;;20.59;77.32
72438;BME280;60444;43.534;-5.674;2022-09-20T12:57:56;102086.38;;;20.53;77.98
72438;BME280;60444;43.534;-5.674;2022-09-20T13:05:41;102068.03;;;20.53;79.65
72438;BME280;60444;43.534;-5.674;2022-09-20T13:08:16;102064.41;;;20.65;79.87
72438;BME280;60444;43.534;-5.674;2022-09-20T13:16:06;102059.25;;;20.74;78.22
72438;BME280;60444;43.534;-5.674;2022-09-20T13:18:34;102035.81;;;20.68;76.75
72438;BME280;60444;43.534;-5.674;2022-09-20T13:21:01;102062.53;;;20.79;76.33
72438;BME280;60444;43.534;-5.674;2022-09-20T13:23:38;102052.97;;;20.84;76.81
72438;BME280;60444;43.534;-5.674;2022-09-20T13:26:10;102049.13;;;20.87;76.12
72438;BME280;60444;43.534;-5.674;2022-09-20T13:28:44;102068.28;;;21.01;74.98
72438;BME280;60444;43.534;-5.674;2022-09-20T13:31:36;102054.81;;;20.96;74.36
72438;BME280;60444;43.534;-5.674;2022-09-20T13:34:23;102069.19;;;21.01;74.01
72438;BME280;60444;43.534;-5.674;2022-09-20T13:36:52;102061.59;;;21.05;74.43
72438;BME280;60444;43.534;-5.674;2022-09-20T13:39:23;102066.97;;;21.06;74.32
72438;BME280;60444;43.534;-5.674;2022-09-20T13:41:53;102018.78;;;21.01;74.30
72438;BME280;60444;43.534;-5.674;2022-09-20T13:44:28;102043.53;;;21.01;75.84
72438;BME280;60444;43.534;-5.674;2022-09-20T13:46:58;102026.78;;;20.91;76.01
72438;BME280;60444;43.534;-5.674;2022-09-20T13:49:24;102022.81;;;20.95;75.62
72438;BME280;60444;43.534;-5.674;2022-09-20T13:51:50;102034.72;;;20.96;76.50
72438;BME280;60444;43.534;-5.674;2022-09-20T13:56:52;102025.34;;;20.86;76.97
72438;BME280;60444;43.534;-5.674;2022-09-20T13:59:19;102025.69;;;20.94;76.21
72438;BME280;60444;43.534;-5.674;2022-09-20T14:01:52;102042.19;;;20.94;76.69
72438;BME280;60444;43.534;-5.674;2022-09-20T14:04:23;102020.63;;;20.88;76.48
72438;BME280;60444;43.534;-5.674;2022-09-20T14:06:52;102035.69;;;20.95;76.91
72438;BME280;60444;43.534;-5.674;2022-09-20T14:09:31;102024.56;;;20.96;76.63
72438;BME280;60444;43.534;-5.674;2022-09-20T14:11:58;102007.19;;;20.96;77.08
72438;BME280;60444;43.534;-5.674;2022-09-20T14:14:25;102016.22;;;20.98;76.67
72438;BME280;60444;43.534;-5.674;2022-09-20T14:16:53;102005.66;;;21.04;76.71
72438;BME280;60444;43.534;-5.674;2022-09-20T14:19:24;102006.75;;;21.02;76.35
72438;BME280;60444;43.534;-5.674;2022-09-20T14:21:52;102024.56;;;21.09;76.39
72438;BME280;60444;43.534;-5.674;2022-09-20T14:24:29;101985.88;;;20.99;75.55
72438;BME280;60444;43.534;-5.674;2022-09-20T14:27:16;102005.66;;;21.04;74.99
72438;BME280;60444;43.534;-5.674;2022-09-20T14:29:50;102024.81;;;21.06;75.24
72438;BME280;60444;43.534;-5.674;2022-09-20T14:34:57;101998.31;;;21.05;76.41
72438;BME280;60444;43.534;-5.674;2022-09-20T14:39:55;102018.75;;;21.13;76.65
72438;BME280;60444;43.534;-5.674;2022-09-20T14:42:29;101998.84;;;21.10;76.50
72438;BME280;60444;43.534;-5.674;2022-09-20T14:44:57;102015.31;;;21.22;76.26
72438;BME280;60444;43.534;-5.674;2022-09-20T14:47:28;102026.44;;;21.21;75.67
72438;BME280;60444;43.534;-5.674;2022-09-20T14:49:54;102012.44;;;21.24;75.43
72438;BME280;60444;43.534;-5.674;2022-09-20T14:52:31;102003.94;;;21.27;75.30
72438;BME280;60444;43.534;-5.674;2022-09-20T14:57:34;102012.97;;;21.29;75.00
72438;BME280;60444;43.534;-5.674;2022-09-20T15:00:04;101997.25;;;21.18;73.52
72438;BME280;60444;43.534;-5.674;2022-09-20T15:02:34;101965.38;;;21.03;74.09
72438;BME280;60444;43.534;-5.674;2022-09-20T15:05:00;101991.34;;;21.12;74.23
72438;BME280;60444;43.534;-5.674;2022-09-20T15:07:26;101991.03;;;21.04;74.08
72438;BME280;60444;43.534;-5.674;2022-09-20T15:09:52;101976.63;;;21.00;73.57
72438;BME280;60444;43.534;-5.674;2022-09-20T15:12:18;101993.09;;;21.13;73.23
72438;BME280;60444;43.534;-5.674;2022-09-20T15:14:45;101988.06;;;21.07;73.09
72438;BME280;60444;43.534;-5.674;2022-09-20T15:17:20;101991.56;;;21.09;73.22
72438;BME280;60444;43.534;-5.674;2022-09-20T15:19:47;101993.53;;;21.19;73.19
72438;BME280;60444;43.534;-5.674;2022-09-20T15:22:14;101982.31;;;21.10;73.15
72438;BME280;60444;43.534;-5.674;2022-09-20T15:24:40;101985.94;;;21.23;73.67
72438;BME280;60444;43.534;-5.674;2022-09-20T15:27:06;101975.94;;;21.09;74.05
72438;BME280;60444;43.534;-5.674;2022-09-20T15:29:31;101970.63;;;21.19;72.24
72438;BME280;60444;43.534;-5.674;2022-09-20T15:31:57;101982.72;;;21.16;72.27
72438;BME280;60444;43.534;-5.674;2022-09-20T15:34:22;101970.66;;;21.06;72.49
72438;BME280;60444;43.534;-5.674;2022-09-20T15:36:48;101991.56;;;21.09;72.41
72438;BME280;60444;43.534;-5.674;2022-09-20T15:39:15;101990.56;;;21.10;73.38
72438;BME280;60444;43.534;-5.674;2022-09-20T15:41:40;101995.97;;;21.11;72.31
72438;BME280;60444;43.534;-5.674;2022-09-20T15:44:07;101981.97;;;21.14;72.09
72438;BME280;60444;43.534;-5.674;2022-09-20T15:46:33;101996.63;;;21.15;71.93
72438;BME280;60444;43.534;-5.674;2022-09-20T15:49:02;101978.56;;;21.11;71.79
72438;BME280;60444;43.534;-5.674;2022-09-20T15:51:29;101967.34;;;21.14;71.59
72438;BME280;60444;43.534;-5.674;2022-09-20T15:53:57;101989.44;;;21.12;70.54
72438;BME280;60444;43.534;-5.674;2022-09-20T15:56:28;101998.94;;;21.21;71.35
72438;BME280;60444;43.534;-5.674;2022-09-20T15:58:57;101988.78;;;21.21;71.04
72438;BME280;60444;43.534;-5.674;2022-09-20T16:01:31;101983.63;;;21.17;72.59
72438;BME280;60444;43.534;-5.674;2022-09-20T16:03:58;101996.69;;;21.26;70.04
72438;BME280;60444;43.534;-5.674;2022-09-20T16:06:24;101994.19;;;21.23;70.06
72438;BME280;60444;43.534;-5.674;2022-09-20T16:08:50;101980.63;;;21.20;71.13
72438;BME280;60444;43.534;-5.674;2022-09-20T16:11:19;101995.94;;;21.24;70.06
72438;BME280;60444;43.534;-5.674;2022-09-20T16:13:46;101994.19;;;21.23;69.40
72438;BME280;60444;43.534;-5.674;2022-09-20T16:16:11;101994.19;;;21.23;69.19
72438;BME280;60444;43.534;-5.674;2022-09-20T16:18:38;102002.97;;;21.28;69.14
72438;BME280;60444;43.534;-5.674;2022-09-20T16:21:22;101998.75;;;21.35;69.11
72438;BME280;60444;43.534;-5.674;2022-09-20T16:23:51;102015.03;;;21.38;68.65
72438;BME280;60444;43.534;-5.674;2022-09-20T16:26:17;101986.47;;;21.28;70.40
72438;BME280;60444;43.534;-5.674;2022-09-20T16:28:44;102013.28;;;21.37;68.84
72438;BME280;60444;43.534;-5.674;2022-09-20T16:31:43;101998.31;;;21.41;68.91
72438;BME280;60444;43.534;-5.674;2022-09-20T16:34:17;102005.81;;;21.39;68.67
72438;BME280;60444;43.534;-5.674;2022-09-20T16:36:47;101995.00;;;21.36;69.51
72438;BME280;60444;43.534;-5.674;2022-09-20T16:39:14;102000.75;;;21.33;69.29
72438;BME280;60444;43.534;-5.674;2022-09-20T16:41:41;102015.28;;;21.35;68.00
72438;BME280;60444;43.534;-5.674;2022-09-20T16:44:08;102016.25;;;21.34;68.16
72438;BME280;60444;43.534;-5.674;2022-09-20T16:46:34;102010.47;;;21.26;70.06
72438;BME280;60444;43.534;-5.674;2022-09-20T16:49:03;102007.63;;;21.15;67.94
72438;BME280;60444;43.534;-5.674;2022-09-20T16:51:31;102000.47;;;21.00;71.17
72438;BME280;60444;43.534;-5.674;2022-09-20T16:54:01;102006.63;;;20.91;70.24
72438;BME280;60444;43.534;-5.674;2022-09-20T16:56:28;102004.34;;;20.85;69.73
72438;BME280;60444;43.534;-5.674;2022-09-20T16:58:55;102003.91;;;20.65;69.40
72438;BME280;60444;43.534;-5.674;2022-09-20T17:01:21;102025.47;;;20.72;70.26
72438;BME280;60444;43.534;-5.674;2022-09-20T17:03:47;102014.47;;;20.59;70.35
72438;BME280;60444;43.534;-5.674;2022-09-20T17:06:14;102031.84;;;20.47;70.01
72438;BME280;60444;43.534;-5.674;2022-09-20T17:08:41;102017.88;;;20.37;72.10
72438;BME280;60444;43.534;-5.674;2022-09-20T17:11:14;102026.34;;;20.34;70.49
72438;BME280;60444;43.534;-5.674;2022-09-20T17:13:42;102003.44;;;20.21;71.12
72438;BME280;60444;43.534;-5.674;2022-09-20T17:16:12;102028.72;;;20.26;70.56
72438;BME280;60444;43.534;-5.674;2022-09-20T17:18:39;101998.84;;;20.22;74.96
72438;BME280;60444;43.534;-5.674;2022-09-20T17:23:33;102008.84;;;20.35;74.93
72438;BME280;60444;43.534;-5.674;2022-09-20T17:28:35;102039.72;;;20.26;71.23
72438;BME280;60444;43.534;-5.674;2022-09-20T17:31:01;102028.66;;;20.14;73.09
72438;BME280;60444;43.534;-5.674;2022-09-20T17:33:26;102039.94;;;20.23;73.83
72438;BME280;60444;43.534;-5.674;2022-09-20T17:35:54;102032.31;;;20.14;75.02
72438;BME280;60444;43.534;-5.674;2022-09-20T17:38:19;102031.22;;;20.17;72.58
72438;BME280;60444;43.534;-5.674;2022-09-20T17:40:46;102040.91;;;20.22;75.43
72438;BME280;60444;43.534;-5.674;2022-09-20T17:43:11;102041.31;;;20.16;71.54
72438;BME280;60444;43.534;-5.674;2022-09-20T17:45:37;102033.91;;;20.04;72.09
72438;BME280;60444;43.534;-5.674;2022-09-20T17:48:02;102032.38;;;20.00;72.92
72438;BME280;60444;43.534;-5.674;2022-09-20T17:50:28;102048.66;;;20.03;72.09
72438;BME280;60444;43.534;-5.674;2022-09-20T17:52:56;102038.06;;;19.97;72.39
72438;BME280;60444;43.534;-5.674;2022-09-20T17:55:21;102040.03;;;19.95;72.34
72438;BME280;60444;43.534;-5.674;2022-09-20T17:57:47;102035.84;;;19.90;71.13
72438;BME280;60444;43.534;-5.674;2022-09-20T18:00:13;102052.34;;;20.02;74.62
72438;BME280;60444;43.534;-5.674;2022-09-20T18:02:39;102044.75;;;19.93;72.26
72438;BME280;60444;43.534;-5.674;2022-09-20T18:05:05;102048.13;;;19.84;71.31